createdAt,value
2016-05-28T00:00:57.160Z,17.49
2016-05-28T00:01:57.491Z,17.48
2016-05-28T00:02:57.510Z,17.57
2016-05-28T00:03:57.543Z,17.52
2016-05-28T00:04:58.140Z,17.51
2016-05-28T00:05:57.596Z,17.41
2016-05-28T00:06:57.598Z,17.39
2016-05-28T00:07:57.633Z,17.49
2016-05-28T00:08:57.666Z,17.42
2016-05-28T00:09:57.684Z,17.52
2016-05-28T00:10:57.704Z,17.52
2016-05-28T00:11:57.737Z,17.38
2016-05-28T00:12:57.771Z,17.51
2016-05-28T00:13:57.774Z,17.48
2016-05-28T00:14:57.792Z,17.45
2016-05-28T00:15:57.826Z,17.31
2016-05-28T00:16:57.859Z,17.31
2016-05-28T00:17:57.878Z,17.42
2016-05-28T00:18:57.912Z,17.38
2016-05-28T00:19:58.196Z,17.41
2016-05-28T00:20:57.948Z,17.39
2016-05-28T00:21:57.967Z,17.3
2016-05-28T00:22:58.001Z,17.33
2016-05-28T00:23:58.020Z,17.31
2016-05-28T00:24:58.038Z,17.31
2016-05-28T00:25:58.071Z,17.38
2016-05-28T00:26:58.090Z,17.38
2016-05-28T00:27:57.952Z,17.39
2016-05-28T00:28:58.142Z,17.38
2016-05-28T00:29:58.161Z,17.41
2016-05-28T00:30:58.179Z,17.39
2016-05-28T00:31:58.213Z,17.34
2016-05-28T00:32:58.247Z,17.39
2016-05-28T00:33:58.249Z,17.29
2016-05-28T00:34:58.893Z,17.36
2016-05-28T00:35:58.318Z,17.38
2016-05-28T00:36:58.336Z,17.34
2016-05-28T00:37:58.354Z,17.34
2016-05-28T00:38:58.216Z,17.29
2016-05-28T00:39:58.390Z,17.27
2016-05-28T00:40:58.268Z,17.34
2016-05-28T00:41:58.443Z,17.24
2016-05-28T00:42:58.477Z,17.22
2016-05-28T00:43:58.495Z,17.39
2016-05-28T00:44:58.373Z,17.26
2016-05-28T00:45:58.548Z,17.33
2016-05-28T00:46:58.566Z,17.34
2016-05-28T00:47:58.600Z,17.2
2016-05-28T00:48:58.618Z,17.26
2016-05-28T00:49:58.964Z,17.22
2016-05-28T00:50:58.670Z,17.22
2016-05-28T00:51:58.720Z,17.22
2016-05-28T00:52:58.738Z,17.2
2016-05-28T00:53:58.741Z,17.23
2016-05-28T00:54:58.759Z,17.26
2016-05-28T00:55:58.777Z,17.2
2016-05-28T00:56:58.828Z,17.26
2016-05-28T00:57:58.830Z,17.22
2016-05-28T00:58:58.863Z,17.26
2016-05-28T00:59:58.867Z,17.29
2016-05-28T01:00:58.744Z,17.22
2016-05-28T01:01:58.918Z,17.2
2016-05-28T01:02:58.952Z,17.19
2016-05-28T01:03:58.830Z,17.19
2016-05-28T01:04:59.005Z,17.11
2016-05-28T01:05:59.023Z,17.14
2016-05-28T01:06:59.057Z,17.15
2016-05-28T01:07:59.075Z,17.12
2016-05-28T01:08:58.953Z,17.2
2016-05-28T01:09:59.269Z,17.15
2016-05-28T01:10:58.989Z,17.16
2016-05-28T01:11:59.085Z,17.19
2016-05-28T01:12:59.198Z,17.12
2016-05-28T01:13:59.279Z,17.14
2016-05-28T01:14:59.234Z,17.14
2016-05-28T01:15:59.176Z,17.08
2016-05-28T01:16:59.287Z,17.08
2016-05-28T01:17:59.321Z,17.14
2016-05-28T01:18:59.323Z,17.11
2016-05-28T01:19:59.451Z,17.15
2016-05-28T01:20:59.392Z,17.12
2016-05-28T01:21:59.425Z,17.08
2016-05-28T01:22:59.428Z,17.09
2016-05-28T01:23:59.447Z,17.09
2016-05-28T01:24:59.480Z,17.09
2016-05-28T01:25:59.498Z,17.15
2016-05-28T01:26:59.532Z,17.11
2016-05-28T01:27:59.395Z,17.08
2016-05-28T01:28:59.570Z,17.12
2016-05-28T01:29:59.588Z,17.08
2016-05-28T01:30:59.466Z,17.08
2016-05-28T01:31:59.655Z,17.05
2016-05-28T01:32:59.658Z,17.05
2016-05-28T01:33:59.692Z,17.01
2016-05-28T01:34:59.569Z,17.05
2016-05-28T01:35:59.729Z,16.96
2016-05-28T01:36:59.763Z,17.08
2016-05-28T01:37:59.780Z,17.05
2016-05-28T01:38:59.815Z,17.01
2016-05-28T01:39:59.817Z,17.02
2016-05-28T01:40:59.852Z,17.05
2016-05-28T01:41:59.885Z,17.05
2016-05-28T01:42:59.904Z,17.09
2016-05-28T01:43:59.922Z,17.01
2016-05-28T01:44:59.956Z,17.04
2016-05-28T01:45:59.990Z,17.11
2016-05-28T01:46:59.993Z,17.02
2016-05-28T01:48:00.026Z,17.04
2016-05-28T01:49:00.076Z,16.91
2016-05-28T01:50:00.063Z,17.05
2016-05-28T01:51:00.097Z,17.04
2016-05-28T01:52:00.115Z,17.09
2016-05-28T01:53:00.133Z,16.94
2016-05-28T01:54:00.167Z,16.91
2016-05-28T01:55:00.201Z,17.06
2016-05-28T01:56:00.204Z,17.11
2016-05-28T01:57:00.082Z,17.01
2016-05-28T01:58:00.256Z,17.14
2016-05-28T01:59:00.291Z,17.14
2016-05-28T02:00:00.309Z,17.14
2016-05-28T02:01:00.327Z,17.02
2016-05-28T02:02:00.361Z,17.11
2016-05-28T02:03:00.379Z,16.99
2016-05-28T02:04:00.397Z,16.99
2016-05-28T02:05:00.447Z,16.94
2016-05-28T02:06:00.450Z,16.93
2016-05-28T02:07:00.484Z,16.96
2016-05-28T02:08:00.502Z,16.96
2016-05-28T02:09:00.521Z,17.04
2016-05-28T02:10:00.399Z,17.08
2016-05-28T02:11:00.605Z,16.94
2016-05-28T02:12:00.607Z,16.97
2016-05-28T02:13:00.609Z,17.08
2016-05-28T02:14:00.627Z,16.99
2016-05-28T02:15:00.521Z,17.02
2016-05-28T02:16:00.696Z,16.87
2016-05-28T02:17:00.573Z,16.93
2016-05-28T02:18:00.732Z,17.01
2016-05-28T02:19:00.594Z,16.97
2016-05-28T02:20:00.644Z,17.02
2016-05-28T02:21:00.803Z,16.89
2016-05-28T02:22:00.836Z,17.02
2016-05-28T02:23:00.871Z,17.02
2016-05-28T02:24:00.889Z,17.01
2016-05-28T02:25:00.892Z,17.02
2016-05-28T02:26:00.926Z,17.04
2016-05-28T02:27:00.944Z,16.94
2016-05-28T02:28:00.962Z,17.06
2016-05-28T02:29:00.997Z,16.99
2016-05-28T02:30:01.014Z,17.04
2016-05-28T02:31:01.033Z,17.02
2016-05-28T02:32:01.083Z,16.96
2016-05-28T02:33:01.085Z,17.02
2016-05-28T02:34:01.103Z,16.99
2016-05-28T02:35:01.324Z,16.93
2016-05-28T02:36:01.155Z,17.02
2016-05-28T02:37:01.190Z,16.97
2016-05-28T02:38:01.208Z,16.97
2016-05-28T02:39:01.227Z,16.94
2016-05-28T02:40:01.244Z,17.01
2016-05-28T02:41:01.263Z,16.93
2016-05-28T02:42:01.140Z,16.99
2016-05-28T02:43:01.331Z,16.99
2016-05-28T02:44:01.349Z,16.94
2016-05-28T02:45:01.054Z,17.01
2016-05-28T02:46:01.386Z,17.01
2016-05-28T02:47:01.420Z,17.05
2016-05-28T02:48:01.438Z,17.01
2016-05-28T02:49:01.315Z,17.01
2016-05-28T02:50:01.506Z,17.06
2016-05-28T02:51:01.509Z,16.96
2016-05-28T02:52:01.543Z,17.01
2016-05-28T02:53:01.562Z,16.96
2016-05-28T02:54:01.578Z,16.99
2016-05-28T02:55:01.597Z,16.99
2016-05-28T02:56:01.647Z,16.99
2016-05-28T02:57:01.650Z,17.02
2016-05-28T02:58:01.683Z,17.01
2016-05-28T02:59:01.389Z,17.01
2016-05-28T03:00:01.720Z,16.9
2016-05-28T03:01:01.582Z,17.02
2016-05-28T03:02:01.773Z,16.99
2016-05-28T03:03:01.806Z,16.97
2016-05-28T03:04:01.841Z,16.94
2016-05-28T03:05:01.702Z,16.89
2016-05-28T03:06:01.861Z,16.97
2016-05-28T03:07:01.894Z,16.87
2016-05-28T03:08:01.758Z,16.89
2016-05-28T03:09:01.932Z,16.94
2016-05-28T03:10:01.950Z,16.87
2016-05-28T03:11:01.828Z,16.87
2016-05-28T03:12:02.019Z,16.96
2016-05-28T03:13:01.865Z,16.94
2016-05-28T03:14:01.899Z,16.99
2016-05-28T03:15:02.104Z,16.91
2016-05-28T03:16:01.966Z,16.99
2016-05-28T03:17:02.125Z,16.93
2016-05-28T03:18:02.144Z,16.96
2016-05-28T03:19:02.006Z,16.9
2016-05-28T03:20:02.071Z,16.9
2016-05-28T03:21:02.229Z,16.9
2016-05-28T03:22:02.232Z,16.84
2016-05-28T03:23:02.267Z,16.96
2016-05-28T03:24:02.285Z,16.91
2016-05-28T03:25:02.318Z,16.83
2016-05-28T03:26:02.181Z,16.9
2016-05-28T03:27:02.355Z,16.94
2016-05-28T03:28:02.389Z,16.84
2016-05-28T03:29:02.408Z,16.81
2016-05-28T03:30:02.426Z,16.81
2016-05-28T03:31:02.459Z,16.79
2016-05-28T03:32:02.478Z,16.87
2016-05-28T03:33:02.497Z,16.81
2016-05-28T03:34:02.358Z,16.86
2016-05-28T03:35:02.642Z,16.86
2016-05-28T03:36:02.567Z,16.76
2016-05-28T03:37:02.585Z,16.79
2016-05-28T03:38:02.619Z,16.81
2016-05-28T03:39:02.637Z,16.81
2016-05-28T03:40:02.671Z,16.78
2016-05-28T03:41:02.691Z,16.83
2016-05-28T03:42:02.724Z,16.83
2016-05-28T03:43:02.773Z,16.86
2016-05-28T03:44:02.777Z,16.78
2016-05-28T03:45:02.794Z,16.86
2016-05-28T03:46:02.657Z,16.84
2016-05-28T03:47:02.831Z,16.81
2016-05-28T03:48:02.849Z,16.83
2016-05-28T03:49:02.883Z,16.86
2016-05-28T03:50:03.324Z,16.79
2016-05-28T03:51:02.951Z,16.84
2016-05-28T03:52:02.954Z,16.81
2016-05-28T03:53:03.019Z,16.84
2016-05-28T03:54:02.991Z,16.86
2016-05-28T03:55:03.009Z,16.81
2016-05-28T03:56:03.026Z,16.79
2016-05-28T03:57:03.061Z,16.81
2016-05-28T03:58:02.923Z,16.81
2016-05-28T03:59:02.972Z,16.84
2016-05-28T04:00:03.131Z,16.81
2016-05-28T04:01:03.150Z,16.79
2016-05-28T04:02:03.184Z,16.78
2016-05-28T04:03:03.203Z,16.78
2016-05-28T04:04:03.236Z,16.81
2016-05-28T04:05:03.645Z,16.78
2016-05-28T04:06:03.273Z,16.79
2016-05-28T04:07:03.306Z,16.86
2016-05-28T04:08:03.340Z,16.81
2016-05-28T04:09:03.344Z,16.78
2016-05-28T04:10:03.205Z,16.79
2016-05-28T04:11:03.411Z,16.83
2016-05-28T04:12:03.414Z,16.84
2016-05-28T04:13:03.447Z,16.81
2016-05-28T04:14:03.310Z,16.79
2016-05-28T04:15:03.500Z,16.84
2016-05-28T04:16:03.519Z,16.76
2016-05-28T04:17:03.537Z,16.83
2016-05-28T04:18:03.555Z,16.87
2016-05-28T04:19:03.589Z,16.94
2016-05-28T04:20:04.310Z,16.9
2016-05-28T04:21:03.626Z,16.9
2016-05-28T04:22:03.643Z,16.87
2016-05-28T04:23:03.693Z,16.86
2016-05-28T04:24:03.540Z,16.91
2016-05-28T04:25:03.730Z,16.94
2016-05-28T04:26:03.748Z,16.87
2016-05-28T04:27:03.782Z,16.93
2016-05-28T04:28:03.800Z,16.97
2016-05-28T04:29:03.819Z,16.94
2016-05-28T04:30:03.837Z,17.05
2016-05-28T04:31:03.855Z,16.99
2016-05-28T04:32:03.733Z,16.91
2016-05-28T04:33:03.923Z,17.02
2016-05-28T04:34:03.941Z,17.04
2016-05-28T04:35:04.303Z,17.01
2016-05-28T04:36:03.978Z,17.01
2016-05-28T04:37:03.997Z,17.06
2016-05-28T04:38:03.859Z,17.12
2016-05-28T04:39:04.049Z,16.93
2016-05-28T04:40:04.067Z,16.99
2016-05-28T04:41:04.102Z,17.12
2016-05-28T04:42:04.119Z,17.11
2016-05-28T04:43:04.138Z,17.06
2016-05-28T04:44:04.172Z,17.06
2016-05-28T04:45:04.191Z,17.04
2016-05-28T04:46:04.208Z,17.06
2016-05-28T04:47:04.243Z,17.06
2016-05-28T04:48:04.277Z,17.02
2016-05-28T04:49:04.294Z,17.06
2016-05-28T04:50:04.313Z,17.08
2016-05-28T04:51:04.332Z,17.15
2016-05-28T04:52:04.349Z,17.04
2016-05-28T04:53:04.384Z,17.05
2016-05-28T04:54:04.402Z,17.06
2016-05-28T04:55:04.420Z,17.11
2016-05-28T04:56:04.438Z,17.12
2016-05-28T04:57:04.472Z,17.11
2016-05-28T04:58:04.334Z,17.09
2016-05-28T04:59:04.525Z,17.12
2016-05-28T05:00:04.543Z,17.19
2016-05-28T05:01:04.561Z,17.09
2016-05-28T05:02:04.595Z,17.15
2016-05-28T05:03:04.614Z,17.12
2016-05-28T05:04:04.631Z,17.19
2016-05-28T05:05:05.103Z,17.22
2016-05-28T05:06:04.683Z,17.26
2016-05-28T05:07:04.702Z,17.24
2016-05-28T05:08:04.730Z,17.22
2016-05-28T05:09:04.789Z,17.23
2016-05-28T05:10:04.831Z,17.24
2016-05-28T05:11:04.749Z,17.22
2016-05-28T05:12:04.776Z,17.23
2016-05-28T05:13:04.970Z,17.3
2016-05-28T05:14:05.029Z,17.24
2016-05-28T05:15:05.055Z,17.36
2016-05-28T05:16:05.082Z,17.31
2016-05-28T05:17:05.110Z,17.34
2016-05-28T05:18:05.135Z,17.36
2016-05-28T05:19:05.171Z,17.45
2016-05-28T05:20:05.192Z,17.41
2016-05-28T05:21:05.058Z,17.36
2016-05-28T05:22:05.236Z,17.39
2016-05-28T05:23:05.256Z,17.31
2016-05-28T05:24:05.292Z,17.36
2016-05-28T05:25:05.373Z,17.41
2016-05-28T05:26:05.346Z,17.48
2016-05-28T05:27:05.366Z,17.49
2016-05-28T05:28:05.494Z,17.52
2016-05-28T05:29:05.419Z,17.49
2016-05-28T05:30:05.437Z,17.57
2016-05-28T05:31:05.457Z,17.59
2016-05-28T05:32:05.491Z,17.52
2016-05-28T05:33:05.525Z,17.57
2016-05-28T05:34:05.527Z,17.54
2016-05-28T05:35:05.279Z,17.51
2016-05-28T05:36:05.596Z,17.57
2016-05-28T05:37:05.598Z,17.67
2016-05-28T05:38:05.476Z,17.65
2016-05-28T05:39:05.650Z,17.68
2016-05-28T05:40:05.684Z,17.7
2016-05-28T05:41:05.703Z,17.72
2016-05-28T05:42:05.565Z,17.7
2016-05-28T05:43:05.864Z,17.68
2016-05-28T05:44:05.773Z,17.72
2016-05-28T05:45:05.870Z,17.72
2016-05-28T05:46:05.842Z,17.79
2016-05-28T05:47:05.937Z,17.86
2016-05-28T05:48:05.721Z,17.86
2016-05-28T05:49:05.740Z,17.85
2016-05-28T05:50:05.992Z,17.89
2016-05-28T05:51:05.948Z,17.92
2016-05-28T05:52:05.967Z,18.01
2016-05-28T05:53:05.985Z,18
2016-05-28T05:54:06.003Z,18
2016-05-28T05:55:05.958Z,18.03
2016-05-28T05:56:06.056Z,18.04
2016-05-28T05:57:06.183Z,18.13
2016-05-28T05:58:06.124Z,18.16
2016-05-28T05:59:06.142Z,18.16
2016-05-28T06:00:06.175Z,18.18
2016-05-28T06:01:06.022Z,18.18
2016-05-28T06:02:06.196Z,18.22
2016-05-28T06:03:06.216Z,18.31
2016-05-28T06:04:06.249Z,18.28
2016-05-28T06:05:06.580Z,18.29
2016-05-28T06:06:06.316Z,18.31
2016-05-28T06:07:06.334Z,18.34
2016-05-28T06:08:06.196Z,18.41
2016-05-28T06:09:06.372Z,18.4
2016-05-28T06:10:06.406Z,18.35
2016-05-28T06:11:06.423Z,18.4
2016-05-28T06:12:06.442Z,18.5
2016-05-28T06:13:06.460Z,18.45
2016-05-28T06:14:06.370Z,18.52
2016-05-28T06:15:06.512Z,18.55
2016-05-28T06:16:06.547Z,18.5
2016-05-28T06:17:06.565Z,18.59
2016-05-28T06:18:06.599Z,18.6
2016-05-28T06:19:06.461Z,18.6
2016-05-28T06:20:06.651Z,18.6
2016-05-28T06:21:06.514Z,18.63
2016-05-28T06:22:06.688Z,18.65
2016-05-28T06:23:06.816Z,18.73
2016-05-28T06:24:06.834Z,18.62
2016-05-28T06:25:06.867Z,18.75
2016-05-28T06:26:06.870Z,18.75
2016-05-28T06:27:06.905Z,18.77
2016-05-28T06:28:06.954Z,18.75
2016-05-28T06:29:06.957Z,18.81
2016-05-28T06:30:06.960Z,18.84
2016-05-28T06:31:06.805Z,18.84
2016-05-28T06:32:06.965Z,18.81
2016-05-28T06:33:06.983Z,18.8
2016-05-28T06:34:07.002Z,18.89
2016-05-28T06:35:07.519Z,18.9
2016-05-28T06:36:07.116Z,18.96
2016-05-28T06:37:07.134Z,18.84
2016-05-28T06:38:07.074Z,18.93
2016-05-28T06:39:07.265Z,19.02
2016-05-28T06:40:07.127Z,18.95
2016-05-28T06:41:07.004Z,19.04
2016-05-28T06:42:07.195Z,19.02
2016-05-28T06:43:07.213Z,19.09
2016-05-28T06:44:07.059Z,19.16
2016-05-28T06:45:07.234Z,19.21
2016-05-28T06:46:07.267Z,19.21
2016-05-28T06:47:07.302Z,19.27
2016-05-28T06:48:07.320Z,19.29
2016-05-28T06:49:07.339Z,19.29
2016-05-28T06:50:07.747Z,19.3
2016-05-28T06:51:07.406Z,19.34
2016-05-28T06:52:07.425Z,19.34
2016-05-28T06:53:07.442Z,19.44
2016-05-28T06:54:07.478Z,19.37
2016-05-28T06:55:07.511Z,19.49
2016-05-28T06:56:07.357Z,19.47
2016-05-28T06:57:07.376Z,19.58
2016-05-28T06:58:07.411Z,19.55
2016-05-28T06:59:07.444Z,19.54
2016-05-28T07:00:07.618Z,19.59
2016-05-28T07:01:07.480Z,19.58
2016-05-28T07:02:07.671Z,19.55
2016-05-28T07:03:07.704Z,19.56
2016-05-28T07:04:07.722Z,19.74
2016-05-28T07:05:07.600Z,19.74
2016-05-28T07:06:07.774Z,19.82
2016-05-28T07:07:07.793Z,19.77
2016-05-28T07:08:07.812Z,19.85
2016-05-28T07:09:07.846Z,19.88
2016-05-28T07:10:07.707Z,19.88
2016-05-28T07:11:07.898Z,19.94
2016-05-28T07:12:07.915Z,20
2016-05-28T07:13:07.950Z,20.07
2016-05-28T07:14:07.968Z,20.1
2016-05-28T07:15:07.986Z,20.16
2016-05-28T07:16:08.021Z,20.16
2016-05-28T07:17:08.070Z,20.29
2016-05-28T07:18:08.073Z,20.28
2016-05-28T07:19:07.934Z,20.28
2016-05-28T07:20:07.969Z,20.31
2016-05-28T07:21:08.142Z,20.44
2016-05-28T07:22:08.146Z,20.51
2016-05-28T07:23:08.211Z,20.4
2016-05-28T07:24:08.214Z,20.58
2016-05-28T07:25:08.264Z,20.56
2016-05-28T07:26:08.266Z,20.59
2016-05-28T07:27:08.284Z,20.72
2016-05-28T07:28:08.333Z,20.72
2016-05-28T07:29:08.337Z,20.77
2016-05-28T07:30:08.355Z,20.93
2016-05-28T07:31:08.388Z,20.93
2016-05-28T07:32:08.423Z,20.96
2016-05-28T07:33:08.442Z,21.02
2016-05-28T07:34:08.538Z,21.05
2016-05-28T07:35:08.602Z,21.17
2016-05-28T07:36:08.527Z,21.2
2016-05-28T07:37:08.561Z,21.25
2016-05-28T07:38:08.673Z,21.27
2016-05-28T07:39:08.598Z,21.3
2016-05-28T07:40:08.663Z,21.35
2016-05-28T07:41:08.635Z,21.3
2016-05-28T07:42:08.684Z,21.45
2016-05-28T07:43:08.702Z,21.5
2016-05-28T07:44:08.815Z,21.61
2016-05-28T07:45:08.754Z,21.6
2016-05-28T07:46:08.773Z,21.7
2016-05-28T07:47:08.822Z,21.85
2016-05-28T07:48:08.825Z,21.88
2016-05-28T07:49:08.843Z,21.92
2016-05-28T07:50:08.721Z,22.04
2016-05-28T07:51:08.989Z,22
2016-05-28T07:52:08.930Z,22.13
2016-05-28T07:53:08.917Z,22.23
2016-05-28T07:54:09.091Z,22.28
2016-05-28T07:55:09.000Z,22.39
2016-05-28T07:56:09.034Z,22.44
2016-05-28T07:57:08.897Z,22.5
2016-05-28T07:58:09.087Z,22.47
2016-05-28T07:59:09.105Z,22.47
2016-05-28T08:00:09.122Z,22.62
2016-05-28T08:01:09.251Z,22.7
2016-05-28T08:02:09.191Z,22.68
2016-05-28T08:03:09.303Z,22.73
2016-05-28T08:04:09.227Z,22.75
2016-05-28T08:05:09.261Z,22.84
2016-05-28T08:06:09.296Z,22.91
2016-05-28T08:07:09.423Z,22.99
2016-05-28T08:08:09.332Z,22.98
2016-05-28T08:09:09.366Z,23.09
2016-05-28T08:10:09.244Z,23.1
2016-05-28T08:11:09.418Z,23.15
2016-05-28T08:12:09.437Z,23.21
2016-05-28T08:13:09.471Z,23.25
2016-05-28T08:14:09.692Z,23.21
2016-05-28T08:15:09.523Z,23.21
2016-05-28T08:16:09.666Z,23.24
2016-05-28T08:17:09.622Z,23.36
2016-05-28T08:18:09.625Z,23.39
2016-05-28T08:19:09.628Z,23.36
2016-05-28T08:20:09.661Z,23.51
2016-05-28T08:21:09.696Z,23.47
2016-05-28T08:22:09.886Z,23.54
2016-05-28T08:23:09.747Z,23.48
2016-05-28T08:24:09.859Z,23.55
2016-05-28T08:25:09.644Z,23.59
2016-05-28T08:26:09.817Z,23.63
2016-05-28T08:27:09.868Z,23.65
2016-05-28T08:28:09.870Z,23.73
2016-05-28T08:29:11.498Z,23.68
2016-05-28T08:30:09.923Z,23.68
2016-05-28T08:31:09.956Z,23.81
2016-05-28T08:32:09.975Z,23.81
2016-05-28T08:33:10.008Z,23.78
2016-05-28T08:34:11.136Z,23.77
2016-05-28T08:35:10.624Z,23.88
2016-05-28T08:36:10.079Z,23.86
2016-05-28T08:37:10.129Z,23.95
2016-05-28T08:38:10.257Z,23.96
2016-05-28T08:39:10.041Z,24.01
2016-05-28T08:40:10.231Z,24.02
2016-05-28T08:41:10.233Z,24.05
2016-05-28T08:42:10.346Z,24.06
2016-05-28T08:43:10.270Z,24.14
2016-05-28T08:44:10.304Z,24.18
2016-05-28T08:45:10.338Z,24.24
2016-05-28T08:46:10.357Z,24.21
2016-05-28T08:47:10.390Z,24.3
2016-05-28T08:48:10.502Z,24.36
2016-05-28T08:49:10.474Z,24.32
2016-05-28T08:50:10.430Z,24.4
2016-05-28T08:51:10.495Z,24.38
2016-05-28T08:52:10.559Z,24.45
2016-05-28T08:53:10.563Z,24.45
2016-05-28T08:54:10.597Z,24.55
2016-05-28T08:55:10.615Z,24.54
2016-05-28T08:56:10.681Z,24.6
2016-05-28T08:57:10.776Z,24.7
2016-05-28T08:58:10.763Z,24.77
2016-05-28T08:59:10.578Z,24.81
2016-05-28T09:00:10.753Z,24.88
2016-05-28T09:01:10.616Z,24.92
2016-05-28T09:02:10.805Z,24.99
2016-05-28T09:03:10.840Z,25.1
2016-05-28T09:04:10.874Z,25.16
2016-05-28T09:05:11.080Z,25.18
2016-05-28T09:06:10.754Z,25.26
2016-05-28T09:07:10.944Z,25.36
2016-05-28T09:08:10.993Z,25.29
2016-05-28T09:09:11.012Z,25.47
2016-05-28T09:10:11.046Z,25.55
2016-05-28T09:11:11.111Z,25.62
2016-05-28T09:12:11.020Z,25.72
2016-05-28T09:13:11.116Z,25.85
2016-05-28T09:14:11.166Z,25.98
2016-05-28T09:15:11.169Z,26.07
2016-05-28T09:16:11.202Z,26.13
2016-05-28T09:17:11.237Z,26.22
2016-05-28T09:18:11.255Z,26.33
2016-05-28T09:19:11.289Z,26.36
2016-05-28T09:20:11.323Z,26.48
2016-05-28T09:21:11.544Z,26.45
2016-05-28T09:22:11.376Z,26.53
2016-05-28T09:23:11.362Z,26.59
2016-05-28T09:24:11.428Z,26.68
2016-05-28T09:25:11.571Z,26.63
2016-05-28T09:26:11.496Z,26.77
2016-05-28T09:27:11.529Z,26.81
2016-05-28T09:28:11.547Z,26.95
2016-05-28T09:29:11.784Z,26.92
2016-05-28T09:30:11.600Z,27.12
2016-05-28T09:31:11.634Z,27.15
2016-05-28T09:32:11.684Z,27.26
2016-05-28T09:33:11.794Z,27.22
2016-05-28T09:34:11.938Z,27.45
2016-05-28T09:35:11.613Z,27.52
2016-05-28T09:36:11.631Z,27.64
2016-05-28T09:37:11.837Z,27.65
2016-05-28T09:38:11.840Z,27.78
2016-05-28T09:39:11.874Z,27.82
2016-05-28T09:40:11.735Z,28.01
2016-05-28T09:41:11.927Z,28.01
2016-05-28T09:42:11.991Z,28.08
2016-05-28T09:43:11.979Z,28.11
2016-05-28T09:44:12.012Z,28.14
2016-05-28T09:45:12.046Z,28.22
2016-05-28T09:46:12.096Z,28.15
2016-05-28T09:47:12.099Z,28.27
2016-05-28T09:48:11.977Z,28.35
2016-05-28T09:49:12.166Z,28.33
2016-05-28T09:50:12.043Z,28.41
2016-05-28T09:51:12.250Z,28.38
2016-05-28T09:52:12.253Z,28.54
2016-05-28T09:53:12.130Z,28.59
2016-05-28T09:54:12.320Z,28.66
2016-05-28T09:55:12.198Z,28.81
2016-05-28T09:56:12.420Z,28.79
2016-05-28T09:57:12.422Z,28.89
2016-05-28T09:58:12.315Z,29.08
2016-05-28T09:59:12.334Z,29.1
2016-05-28T10:00:12.493Z,29.2
2016-05-28T10:01:12.527Z,29.31
2016-05-28T10:02:12.560Z,29.29
2016-05-28T10:03:12.594Z,29.49
2016-05-28T10:04:12.614Z,29.51
2016-05-28T10:05:13.163Z,29.51
2016-05-28T10:06:12.680Z,29.68
2016-05-28T10:07:12.700Z,29.75
2016-05-28T10:08:12.733Z,29.79
2016-05-28T10:09:12.767Z,29.95
2016-05-28T10:10:12.802Z,30.03
2016-05-28T10:11:12.914Z,30.16
2016-05-28T10:12:12.869Z,30.25
2016-05-28T10:13:12.996Z,30.3
2016-05-28T10:14:12.937Z,30.25
2016-05-28T10:15:12.893Z,30.43
2016-05-28T10:16:13.052Z,30.37
2016-05-28T10:17:13.024Z,30.51
2016-05-28T10:18:13.073Z,30.48
2016-05-28T10:19:12.951Z,30.53
2016-05-28T10:20:13.109Z,30.54
2016-05-28T10:21:13.237Z,30.63
2016-05-28T10:22:13.177Z,30.73
2016-05-28T10:23:13.243Z,30.7
2016-05-28T10:24:13.089Z,30.81
2016-05-28T10:25:13.106Z,30.87
2016-05-28T10:26:13.438Z,30.87
2016-05-28T10:27:13.331Z,30.87
2016-05-28T10:28:13.365Z,31.03
2016-05-28T10:29:13.398Z,31.03
2016-05-28T10:30:13.292Z,31.07
2016-05-28T10:31:13.654Z,31.09
2016-05-28T10:32:13.579Z,31.18
2016-05-28T10:33:13.519Z,31.25
2016-05-28T10:34:13.553Z,31.31
2016-05-28T10:35:13.603Z,31.31
2016-05-28T10:36:13.558Z,31.29
2016-05-28T10:37:13.733Z,31.37
2016-05-28T10:38:13.563Z,31.37
2016-05-28T10:39:13.722Z,31.56
2016-05-28T10:40:13.757Z,31.54
2016-05-28T10:41:13.994Z,31.73
2016-05-28T10:42:13.652Z,31.64
2016-05-28T10:43:13.843Z,31.8
2016-05-28T10:44:13.877Z,31.84
2016-05-28T10:45:13.910Z,31.87
2016-05-28T10:46:13.960Z,32.01
2016-05-28T10:47:13.994Z,32.14
2016-05-28T10:48:14.012Z,32.14
2016-05-28T10:49:14.062Z,32.26
2016-05-28T10:50:14.346Z,32.3
2016-05-28T10:51:14.052Z,32.36
2016-05-28T10:52:14.242Z,32.38
2016-05-28T10:53:14.182Z,32.45
2016-05-28T10:54:14.154Z,32.45
2016-05-28T10:55:14.376Z,32.45
2016-05-28T10:56:14.268Z,32.59
2016-05-28T10:57:14.209Z,32.6
2016-05-28T10:58:14.337Z,32.6
2016-05-28T10:59:14.214Z,32.68
2016-05-28T11:00:14.420Z,32.73
2016-05-28T11:01:14.484Z,32.83
2016-05-28T11:02:14.660Z,32.89
2016-05-28T11:03:14.553Z,33.01
2016-05-28T11:04:14.712Z,33.05
2016-05-28T11:05:14.620Z,33.07
2016-05-28T11:06:14.623Z,33.2
2016-05-28T11:07:14.642Z,33.17
2016-05-28T11:08:14.691Z,33.23
2016-05-28T11:09:14.710Z,33.31
2016-05-28T11:10:14.916Z,33.3
2016-05-28T11:11:14.777Z,33.3
2016-05-28T11:12:14.889Z,33.45
2016-05-28T11:13:14.689Z,33.39
2016-05-28T11:14:14.880Z,33.45
2016-05-28T11:15:14.929Z,33.49
2016-05-28T11:16:15.057Z,33.5
2016-05-28T11:17:14.982Z,33.57
2016-05-28T11:18:15.047Z,33.64
2016-05-28T11:19:14.971Z,33.69
2016-05-28T11:20:15.177Z,33.74
2016-05-28T11:21:14.961Z,33.77
2016-05-28T11:22:15.152Z,33.92
2016-05-28T11:23:14.872Z,34.02
2016-05-28T11:24:15.062Z,34.03
2016-05-28T11:25:15.253Z,34.21
2016-05-28T11:26:15.287Z,34.17
2016-05-28T11:27:15.336Z,34.27
2016-05-28T11:28:15.136Z,34.32
2016-05-28T11:29:15.404Z,34.39
2016-05-28T11:30:15.438Z,34.52
2016-05-28T11:31:15.519Z,34.54
2016-05-28T11:32:15.647Z,34.6
2016-05-28T11:33:15.384Z,34.71
2016-05-28T11:34:15.559Z,34.81
2016-05-28T11:35:16.139Z,34.78
2016-05-28T11:36:15.641Z,34.71
2016-05-28T11:37:15.660Z,34.83
2016-05-28T11:38:15.709Z,34.95
2016-05-28T11:39:15.744Z,35.05
2016-05-28T11:40:15.839Z,35.04
2016-05-28T11:41:15.906Z,35.18
2016-05-28T11:42:15.892Z,35.23
2016-05-28T11:43:15.910Z,35.24
2016-05-28T11:44:15.913Z,35.31
2016-05-28T11:45:15.963Z,35.39
2016-05-28T11:46:15.997Z,35.42
2016-05-28T11:47:16.141Z,35.42
2016-05-28T11:48:15.893Z,35.53
2016-05-28T11:49:16.223Z,35.51
2016-05-28T11:50:16.258Z,35.56
2016-05-28T11:51:16.166Z,35.61
2016-05-28T11:52:16.216Z,35.61
2016-05-28T11:53:16.093Z,35.64
2016-05-28T11:54:16.127Z,35.63
2016-05-28T11:55:16.427Z,35.73
2016-05-28T11:56:16.430Z,35.73
2016-05-28T11:57:16.385Z,35.83
2016-05-28T11:58:16.404Z,35.88
2016-05-28T11:59:16.312Z,35.95
2016-05-28T12:00:16.488Z,35.83
2016-05-28T12:01:16.521Z,35.9
2016-05-28T12:02:16.665Z,35.93
2016-05-28T12:03:16.448Z,36.01
2016-05-28T12:04:16.562Z,36.01
2016-05-28T12:05:16.517Z,36.07
2016-05-28T12:06:16.706Z,36.09
2016-05-28T12:07:16.585Z,36.25
2016-05-28T12:08:16.774Z,36.24
2016-05-28T12:09:16.809Z,36.28
2016-05-28T12:10:16.875Z,36.33
2016-05-28T12:11:16.877Z,36.36
2016-05-28T12:12:16.925Z,36.35
2016-05-28T12:13:16.961Z,36.28
2016-05-28T12:14:17.010Z,36.39
2016-05-28T12:15:17.028Z,36.42
2016-05-28T12:16:17.061Z,36.37
2016-05-28T12:17:17.111Z,36.57
2016-05-28T12:18:17.146Z,36.52
2016-05-28T12:19:17.180Z,36.62
2016-05-28T12:20:17.072Z,36.7
2016-05-28T12:21:17.388Z,36.68
2016-05-28T12:22:17.296Z,36.74
2016-05-28T12:23:17.205Z,36.73
2016-05-28T12:24:17.474Z,36.77
2016-05-28T12:25:17.399Z,36.79
2016-05-28T12:26:17.292Z,36.79
2016-05-28T12:27:17.466Z,36.95
2016-05-28T12:28:17.343Z,36.96
2016-05-28T12:29:17.582Z,36.96
2016-05-28T12:30:17.584Z,37.1
2016-05-28T12:31:17.617Z,37.02
2016-05-28T12:32:17.511Z,37.11
2016-05-28T12:33:17.686Z,37.18
2016-05-28T12:34:17.735Z,37.23
2016-05-28T12:35:18.159Z,37.32
2016-05-28T12:36:17.820Z,37.21
2016-05-28T12:37:18.134Z,37.23
2016-05-28T12:38:17.871Z,37.2
2016-05-28T12:39:17.937Z,37.15
2016-05-28T12:40:17.798Z,37.06
2016-05-28T12:41:17.989Z,37.08
2016-05-28T12:42:18.022Z,37.06
2016-05-28T12:43:18.150Z,37.01
2016-05-28T12:44:18.106Z,36.89
2016-05-28T12:45:18.139Z,36.92
2016-05-28T12:46:18.034Z,36.95
2016-05-28T12:47:18.208Z,36.92
2016-05-28T12:48:18.335Z,36.91
2016-05-28T12:49:18.385Z,36.95
2016-05-28T12:50:18.232Z,37.01
2016-05-28T12:51:18.546Z,36.99
2016-05-28T12:52:18.549Z,36.98
2016-05-28T12:53:18.521Z,36.98
2016-05-28T12:54:18.570Z,37.07
2016-05-28T12:55:18.510Z,37.15